sensor_id;sensor_type;location;lat;lon;timestamp;P1;durP1;ratioP1;P2;durP2;ratioP2
28309;SDS011;15571;50.974;13.936;2023-06-19T00:00:21;12.55;;;10.93;;
28309;SDS011;15571;50.974;13.936;2023-06-19T00:03:24;13.05;;;11.60;;
28309;SDS011;15571;50.974;13.936;2023-06-19T00:06:29;12.82;;;11.52;;
28309;SDS011;15571;50.974;13.936;2023-06-19T00:09:31;14.07;;;11.70;;
28309;SDS011;15571;50.974;13.936;2023-06-19T00:12:36;12.18;;;10.88;;
28309;SDS011;15571;50.974;13.936;2023-06-19T00:15:40;12.73;;;11.43;;
28309;SDS011;15571;50.974;13.936;2023-06-19T00:18:42;18.52;;;11.40;;
28309;SDS011;15571;50.974;13.936;2023-06-19T00:21:44;13.88;;;11.82;;
28309;SDS011;15571;50.974;13.936;2023-06-19T00:24:47;14.43;;;11.30;;
28309;SDS011;15571;50.974;13.936;2023-06-19T00:27:50;14.30;;;11.80;;
28309;SDS011;15571;50.974;13.936;2023-06-19T00:30:56;11.80;;;10.60;;
28309;SDS011;15571;50.974;13.936;2023-06-19T00:34:01;12.63;;;11.15;;
28309;SDS011;15571;50.974;13.936;2023-06-19T00:37:04;13.35;;;10.73;;
28309;SDS011;15571;50.974;13.936;2023-06-19T00:40:07;13.68;;;11.82;;
28309;SDS011;15571;50.974;13.936;2023-06-19T00:43:12;13.75;;;11.80;;
28309;SDS011;15571;50.974;13.936;2023-06-19T00:49:21;12.85;;;11.43;;
28309;SDS011;15571;50.974;13.936;2023-06-19T00:52:23;12.90;;;11.60;;
28309;SDS011;15571;50.974;13.936;2023-06-19T00:55:27;13.55;;;12.02;;
28309;SDS011;15571;50.974;13.936;2023-06-19T00:58:31;14.23;;;11.35;;
28309;SDS011;15571;50.974;13.936;2023-06-19T01:01:35;14.43;;;11.35;;
28309;SDS011;15571;50.974;13.936;2023-06-19T01:04:37;12.32;;;10.95;;
28309;SDS011;15571;50.974;13.936;2023-06-19T01:07:44;16.02;;;10.77;;
28309;SDS011;15571;50.974;13.936;2023-06-19T01:10:49;14.90;;;11.95;;
28309;SDS011;15571;50.974;13.936;2023-06-19T01:14:01;13.38;;;11.05;;
28309;SDS011;15571;50.974;13.936;2023-06-19T01:17:14;14.95;;;11.77;;
28309;SDS011;15571;50.974;13.936;2023-06-19T01:20:20;12.38;;;11.07;;
28309;SDS011;15571;50.974;13.936;2023-06-19T01:23:24;16.58;;;12.15;;
28309;SDS011;15571;50.974;13.936;2023-06-19T01:26:27;12.52;;;11.23;;
28309;SDS011;15571;50.974;13.936;2023-06-19T01:29:31;15.25;;;11.82;;
28309;SDS011;15571;50.974;13.936;2023-06-19T01:35:38;15.68;;;12.13;;
28309;SDS011;15571;50.974;13.936;2023-06-19T01:38:45;13.20;;;11.57;;
28309;SDS011;15571;50.974;13.936;2023-06-19T01:41:49;12.80;;;10.98;;
28309;SDS011;15571;50.974;13.936;2023-06-19T01:44:53;14.10;;;11.63;;
28309;SDS011;15571;50.974;13.936;2023-06-19T01:47:55;14.45;;;11.60;;
28309;SDS011;15571;50.974;13.936;2023-06-19T01:50:58;18.85;;;12.32;;
28309;SDS011;15571;50.974;13.936;2023-06-19T01:54:05;13.13;;;10.98;;
28309;SDS011;15571;50.974;13.936;2023-06-19T01:57:07;15.57;;;12.57;;
28309;SDS011;15571;50.974;13.936;2023-06-19T02:00:10;14.38;;;11.60;;
28309;SDS011;15571;50.974;13.936;2023-06-19T02:03:16;13.80;;;10.93;;
28309;SDS011;15571;50.974;13.936;2023-06-19T02:06:19;13.52;;;11.55;;
28309;SDS011;15571;50.974;13.936;2023-06-19T02:09:23;15.18;;;11.40;;
28309;SDS011;15571;50.974;13.936;2023-06-19T02:12:25;15.95;;;11.60;;
28309;SDS011;15571;50.974;13.936;2023-06-19T02:15:27;16.15;;;11.85;;
28309;SDS011;15571;50.974;13.936;2023-06-19T02:18:32;14.68;;;12.38;;
28309;SDS011;15571;50.974;13.936;2023-06-19T02:24:37;13.80;;;11.43;;
28309;SDS011;15571;50.974;13.936;2023-06-19T02:27:40;14.27;;;11.73;;
28309;SDS011;15571;50.974;13.936;2023-06-19T02:30:42;14.55;;;11.82;;
28309;SDS011;15571;50.974;13.936;2023-06-19T02:33:48;12.13;;;10.82;;
28309;SDS011;15571;50.974;13.936;2023-06-19T02:36:53;14.48;;;12.50;;
28309;SDS011;15571;50.974;13.936;2023-06-19T02:39:57;13.48;;;12.02;;
28309;SDS011;15571;50.974;13.936;2023-06-19T02:42:59;16.15;;;12.30;;
28309;SDS011;15571;50.974;13.936;2023-06-19T02:49:03;16.90;;;11.95;;
28309;SDS011;15571;50.974;13.936;2023-06-19T02:52:06;13.27;;;11.45;;
28309;SDS011;15571;50.974;13.936;2023-06-19T02:55:10;14.70;;;11.70;;
28309;SDS011;15571;50.974;13.936;2023-06-19T02:58:18;14.82;;;12.05;;
28309;SDS011;15571;50.974;13.936;2023-06-19T03:01:25;14.85;;;11.82;;
28309;SDS011;15571;50.974;13.936;2023-06-19T03:04:30;16.30;;;12.60;;
28309;SDS011;15571;50.974;13.936;2023-06-19T03:07:33;15.05;;;12.13;;
28309;SDS011;15571;50.974;13.936;2023-06-19T03:10:37;14.55;;;11.70;;
28309;SDS011;15571;50.974;13.936;2023-06-19T03:13:44;15.02;;;12.35;;
28309;SDS011;15571;50.974;13.936;2023-06-19T03:16:47;15.73;;;11.45;;
28309;SDS011;15571;50.974;13.936;2023-06-19T03:25:56;14.25;;;12.10;;
28309;SDS011;15571;50.974;13.936;2023-06-19T03:28:58;14.40;;;12.55;;
28309;SDS011;15571;50.974;13.936;2023-06-19T03:32:05;14.32;;;11.88;;
28309;SDS011;15571;50.974;13.936;2023-06-19T03:35:13;15.60;;;12.10;;
28309;SDS011;15571;50.974;13.936;2023-06-19T03:38:21;13.50;;;11.88;;
28309;SDS011;15571;50.974;13.936;2023-06-19T03:41:25;16.27;;;12.30;;
28309;SDS011;15571;50.974;13.936;2023-06-19T03:44:33;14.60;;;12.27;;
28309;SDS011;15571;50.974;13.936;2023-06-19T03:47:37;20.10;;;15.38;;
28309;SDS011;15571;50.974;13.936;2023-06-19T03:50:40;15.45;;;11.55;;
28309;SDS011;15571;50.974;13.936;2023-06-19T03:56:46;13.27;;;11.23;;
28309;SDS011;15571;50.974;13.936;2023-06-19T03:59:48;13.15;;;11.75;;
28309;SDS011;15571;50.974;13.936;2023-06-19T04:02:56;13.60;;;11.32;;
28309;SDS011;15571;50.974;13.936;2023-06-19T04:09:00;14.73;;;11.88;;
28309;SDS011;15571;50.974;13.936;2023-06-19T04:12:04;12.68;;;11.00;;
28309;SDS011;15571;50.974;13.936;2023-06-19T04:15:10;12.95;;;11.57;;
28309;SDS011;15571;50.974;13.936;2023-06-19T04:18:13;15.00;;;11.63;;
28309;SDS011;15571;50.974;13.936;2023-06-19T04:21:15;15.98;;;12.23;;
28309;SDS011;15571;50.974;13.936;2023-06-19T04:24:17;13.20;;;10.90;;
28309;SDS011;15571;50.974;13.936;2023-06-19T04:27:21;14.40;;;10.68;;
28309;SDS011;15571;50.974;13.936;2023-06-19T04:30:27;17.13;;;11.40;;
28309;SDS011;15571;50.974;13.936;2023-06-19T04:33:29;14.88;;;11.80;;
28309;SDS011;15571;50.974;13.936;2023-06-19T04:36:31;12.02;;;10.18;;
28309;SDS011;15571;50.974;13.936;2023-06-19T04:39:34;13.95;;;11.07;;
28309;SDS011;15571;50.974;13.936;2023-06-19T04:42:38;13.68;;;10.93;;
28309;SDS011;15571;50.974;13.936;2023-06-19T04:45:45;16.52;;;11.82;;
28309;SDS011;15571;50.974;13.936;2023-06-19T04:48:52;12.43;;;11.13;;
28309;SDS011;15571;50.974;13.936;2023-06-19T04:51:58;14.10;;;10.88;;
28309;SDS011;15571;50.974;13.936;2023-06-19T04:55:00;11.50;;;10.20;;
28309;SDS011;15571;50.974;13.936;2023-06-19T05:01:13;12.73;;;10.52;;
28309;SDS011;15571;50.974;13.936;2023-06-19T05:04:15;12.77;;;10.60;;
28309;SDS011;15571;50.974;13.936;2023-06-19T05:07:17;12.68;;;10.98;;
28309;SDS011;15571;50.974;13.936;2023-06-19T05:13:23;13.63;;;10.77;;
28309;SDS011;15571;50.974;13.936;2023-06-19T05:16:26;11.48;;;10.30;;
28309;SDS011;15571;50.974;13.936;2023-06-19T05:19:32;12.02;;;10.55;;
28309;SDS011;15571;50.974;13.936;2023-06-19T05:22:34;11.68;;;10.48;;
28309;SDS011;15571;50.974;13.936;2023-06-19T05:25:37;11.30;;;10.10;;
28309;SDS011;15571;50.974;13.936;2023-06-19T05:28:41;11.55;;;10.30;;
28309;SDS011;15571;50.974;13.936;2023-06-19T05:31:43;13.13;;;10.48;;
28309;SDS011;15571;50.974;13.936;2023-06-19T05:37:47;15.20;;;10.10;;
28309;SDS011;15571;50.974;13.936;2023-06-19T05:43:53;11.02;;;9.90;;
28309;SDS011;15571;50.974;13.936;2023-06-19T05:46:55;12.68;;;10.38;;
28309;SDS011;15571;50.974;13.936;2023-06-19T05:49:58;12.35;;;10.00;;
28309;SDS011;15571;50.974;13.936;2023-06-19T05:53:00;11.43;;;10.23;;
28309;SDS011;15571;50.974;13.936;2023-06-19T05:56:04;11.57;;;10.40;;
28309;SDS011;15571;50.974;13.936;2023-06-19T05:59:10;11.43;;;10.23;;
28309;SDS011;15571;50.974;13.936;2023-06-19T06:02:15;13.60;;;10.55;;
28309;SDS011;15571;50.974;13.936;2023-06-19T06:05:18;11.20;;;10.00;;
28309;SDS011;15571;50.974;13.936;2023-06-19T06:08:25;11.30;;;9.23;;
28309;SDS011;15571;50.974;13.936;2023-06-19T06:14:33;10.43;;;9.35;;
28309;SDS011;15571;50.974;13.936;2023-06-19T06:17:36;10.65;;;9.32;;
28309;SDS011;15571;50.974;13.936;2023-06-19T06:20:39;10.95;;;9.85;;
28309;SDS011;15571;50.974;13.936;2023-06-19T06:26:45;14.15;;;9.23;;
28309;SDS011;15571;50.974;13.936;2023-06-19T06:29:48;10.88;;;9.75;;
28309;SDS011;15571;50.974;13.936;2023-06-19T06:32:51;13.60;;;9.48;;
28309;SDS011;15571;50.974;13.936;2023-06-19T06:35:54;11.38;;;9.30;;
28309;SDS011;15571;50.974;13.936;2023-06-19T06:38:56;10.55;;;9.20;;
28309;SDS011;15571;50.974;13.936;2023-06-19T06:41:58;10.38;;;9.10;;
28309;SDS011;15571;50.974;13.936;2023-06-19T06:45:06;10.45;;;9.20;;
28309;SDS011;15571;50.974;13.936;2023-06-19T06:48:08;10.27;;;9.07;;
28309;SDS011;15571;50.974;13.936;2023-06-19T06:51:11;11.18;;;9.63;;
28309;SDS011;15571;50.974;13.936;2023-06-19T06:54:13;11.77;;;9.73;;
28309;SDS011;15571;50.974;13.936;2023-06-19T06:57:16;12.75;;;9.27;;
28309;SDS011;15571;50.974;13.936;2023-06-19T07:00:19;10.70;;;9.35;;
28309;SDS011;15571;50.974;13.936;2023-06-19T07:03:22;12.73;;;8.88;;
28309;SDS011;15571;50.974;13.936;2023-06-19T07:06:24;11.77;;;9.70;;
28309;SDS011;15571;50.974;13.936;2023-06-19T07:09:28;12.27;;;9.65;;
28309;SDS011;15571;50.974;13.936;2023-06-19T07:12:30;9.27;;;8.27;;
28309;SDS011;15571;50.974;13.936;2023-06-19T07:15:34;12.02;;;9.35;;
28309;SDS011;15571;50.974;13.936;2023-06-19T07:18:36;15.27;;;10.38;;
28309;SDS011;15571;50.974;13.936;2023-06-19T07:21:41;10.93;;;9.57;;
28309;SDS011;15571;50.974;13.936;2023-06-19T07:24:43;9.85;;;8.65;;
28309;SDS011;15571;50.974;13.936;2023-06-19T07:27:45;10.32;;;9.05;;
28309;SDS011;15571;50.974;13.936;2023-06-19T07:30:49;10.27;;;9.25;;
28309;SDS011;15571;50.974;13.936;2023-06-19T07:33:52;9.73;;;8.70;;
28309;SDS011;15571;50.974;13.936;2023-06-19T07:36:54;10.73;;;9.63;;
28309;SDS011;15571;50.974;13.936;2023-06-19T07:39:56;11.07;;;8.93;;
28309;SDS011;15571;50.974;13.936;2023-06-19T07:42:58;12.20;;;8.57;;
28309;SDS011;15571;50.974;13.936;2023-06-19T07:50:22;10.73;;;8.55;;
28309;SDS011;15571;50.974;13.936;2023-06-19T07:53:26;9.48;;;8.52;;
28309;SDS011;15571;50.974;13.936;2023-06-19T07:59:29;10.43;;;9.02;;
28309;SDS011;15571;50.974;13.936;2023-06-19T08:02:32;10.20;;;9.10;;
28309;SDS011;15571;50.974;13.936;2023-06-19T08:05:35;11.50;;;9.35;;
28309;SDS011;15571;50.974;13.936;2023-06-19T08:08:37;11.60;;;8.68;;
28309;SDS011;15571;50.974;13.936;2023-06-19T08:11:39;9.27;;;7.82;;
28309;SDS011;15571;50.974;13.936;2023-06-19T08:17:43;9.05;;;8.15;;
28309;SDS011;15571;50.974;13.936;2023-06-19T08:20:47;11.00;;;8.88;;
28309;SDS011;15571;50.974;13.936;2023-06-19T08:23:49;11.45;;;9.52;;
28309;SDS011;15571;50.974;13.936;2023-06-19T08:26:51;9.95;;;8.95;;
28309;SDS011;15571;50.974;13.936;2023-06-19T08:29:53;12.38;;;9.27;;
28309;SDS011;15571;50.974;13.936;2023-06-19T08:32:55;9.85;;;8.85;;
28309;SDS011;15571;50.974;13.936;2023-06-19T08:35:59;11.63;;;8.73;;
28309;SDS011;15571;50.974;13.936;2023-06-19T08:39:02;16.75;;;9.90;;
28309;SDS011;15571;50.974;13.936;2023-06-19T08:42:08;9.70;;;8.80;;
28309;SDS011;15571;50.974;13.936;2023-06-19T08:45:15;11.35;;;9.32;;
28309;SDS011;15571;50.974;13.936;2023-06-19T08:48:21;10.02;;;9.00;;
28309;SDS011;15571;50.974;13.936;2023-06-19T08:51:25;10.15;;;9.15;;
28309;SDS011;15571;50.974;13.936;2023-06-19T08:54:28;10.48;;;9.30;;
28309;SDS011;15571;50.974;13.936;2023-06-19T08:57:34;12.13;;;9.13;;
28309;SDS011;15571;50.974;13.936;2023-06-19T09:00:36;10.68;;;9.57;;
28309;SDS011;15571;50.974;13.936;2023-06-19T09:03:38;10.18;;;9.18;;
28309;SDS011;15571;50.974;13.936;2023-06-19T09:06:49;12.40;;;10.30;;
28309;SDS011;15571;50.974;13.936;2023-06-19T09:09:52;14.10;;;10.25;;
28309;SDS011;15571;50.974;13.936;2023-06-19T09:13:01;10.75;;;9.20;;
28309;SDS011;15571;50.974;13.936;2023-06-19T09:16:06;11.85;;;9.32;;
28309;SDS011;15571;50.974;13.936;2023-06-19T09:19:09;10.63;;;9.07;;
28309;SDS011;15571;50.974;13.936;2023-06-19T09:22:13;11.10;;;9.95;;
28309;SDS011;15571;50.974;13.936;2023-06-19T09:25:15;10.60;;;9.50;;
28309;SDS011;15571;50.974;13.936;2023-06-19T09:28:22;12.90;;;10.18;;
28309;SDS011;15571;50.974;13.936;2023-06-19T09:31:32;11.27;;;9.95;;
28309;SDS011;15571;50.974;13.936;2023-06-19T09:34:37;11.68;;;9.35;;
28309;SDS011;15571;50.974;13.936;2023-06-19T09:37:41;10.95;;;9.85;;
28309;SDS011;15571;50.974;13.936;2023-06-19T09:40:45;12.40;;;9.80;;
28309;SDS011;15571;50.974;13.936;2023-06-19T09:43:48;12.55;;;9.70;;
28309;SDS011;15571;50.974;13.936;2023-06-19T09:47:07;11.70;;;9.52;;
28309;SDS011;15571;50.974;13.936;2023-06-19T09:50:18;10.90;;;9.52;;
28309;SDS011;15571;50.974;13.936;2023-06-19T09:53:28;11.23;;;9.82;;
28309;SDS011;15571;50.974;13.936;2023-06-19T09:56:34;12.30;;;9.70;;
28309;SDS011;15571;50.974;13.936;2023-06-19T09:59:40;9.88;;;8.88;;
28309;SDS011;15571;50.974;13.936;2023-06-19T10:02:46;11.23;;;9.65;;
28309;SDS011;15571;50.974;13.936;2023-06-19T10:05:56;11.25;;;9.50;;
28309;SDS011;15571;50.974;13.936;2023-06-19T10:09:09;10.90;;;9.75;;
28309;SDS011;15571;50.974;13.936;2023-06-19T10:12:11;11.80;;;9.45;;
28309;SDS011;15571;50.974;13.936;2023-06-19T10:15:17;11.57;;;10.05;;
28309;SDS011;15571;50.974;13.936;2023-06-19T10:18:20;11.63;;;10.43;;
28309;SDS011;15571;50.974;13.936;2023-06-19T10:21:25;10.68;;;9.57;;
28309;SDS011;15571;50.974;13.936;2023-06-19T10:24:28;11.75;;;10.27;;
28309;SDS011;15571;50.974;13.936;2023-06-19T10:27:33;11.85;;;9.90;;
28309;SDS011;15571;50.974;13.936;2023-06-19T10:30:38;14.85;;;10.38;;
28309;SDS011;15571;50.974;13.936;2023-06-19T10:33:41;11.80;;;9.45;;
28309;SDS011;15571;50.974;13.936;2023-06-19T10:36:42;11.23;;;9.75;;
28309;SDS011;15571;50.974;13.936;2023-06-19T10:39:46;12.43;;;10.13;;
28309;SDS011;15571;50.974;13.936;2023-06-19T10:42:49;10.95;;;9.52;;
28309;SDS011;15571;50.974;13.936;2023-06-19T10:45:54;9.75;;;8.75;;
28309;SDS011;15571;50.974;13.936;2023-06-19T10:48:58;15.32;;;10.18;;
28309;SDS011;15571;50.974;13.936;2023-06-19T10:52:01;11.35;;;10.25;;
28309;SDS011;15571;50.974;13.936;2023-06-19T10:55:05;11.80;;;10.20;;
28309;SDS011;15571;50.974;13.936;2023-06-19T10:58:08;11.30;;;10.02;;
28309;SDS011;15571;50.974;13.936;2023-06-19T11:01:13;11.45;;;9.18;;
28309;SDS011;15571;50.974;13.936;2023-06-19T11:04:16;13.25;;;9.52;;
28309;SDS011;15571;50.974;13.936;2023-06-19T11:07:18;10.48;;;9.48;;
28309;SDS011;15571;50.974;13.936;2023-06-19T11:10:27;16.40;;;9.80;;
28309;SDS011;15571;50.974;13.936;2023-06-19T11:13:30;10.82;;;9.63;;
28309;SDS011;15571;50.974;13.936;2023-06-19T11:16:35;10.82;;;9.75;;
28309;SDS011;15571;50.974;13.936;2023-06-19T11:19:40;10.40;;;9.30;;
28309;SDS011;15571;50.974;13.936;2023-06-19T11:22:44;11.57;;;10.40;;
28309;SDS011;15571;50.974;13.936;2023-06-19T11:25:48;11.25;;;10.15;;
28309;SDS011;15571;50.974;13.936;2023-06-19T11:28:50;11.30;;;9.88;;
28309;SDS011;15571;50.974;13.936;2023-06-19T11:31:53;13.52;;;10.23;;
28309;SDS011;15571;50.974;13.936;2023-06-19T11:35:08;12.23;;;10.50;;
28309;SDS011;15571;50.974;13.936;2023-06-19T11:38:15;14.30;;;9.73;;
28309;SDS011;15571;50.974;13.936;2023-06-19T11:41:29;10.00;;;8.90;;
28309;SDS011;15571;50.974;13.936;2023-06-19T11:44:31;10.82;;;9.73;;
28309;SDS011;15571;50.974;13.936;2023-06-19T11:47:34;11.57;;;9.52;;
28309;SDS011;15571;50.974;13.936;2023-06-19T11:50:39;10.15;;;9.13;;
28309;SDS011;15571;50.974;13.936;2023-06-19T11:53:44;11.50;;;10.25;;
28309;SDS011;15571;50.974;13.936;2023-06-19T11:56:50;10.15;;;9.25;;
28309;SDS011;15571;50.974;13.936;2023-06-19T11:59:52;10.15;;;9.07;;
28309;SDS011;15571;50.974;13.936;2023-06-19T12:02:55;10.07;;;9.07;;
28309;SDS011;15571;50.974;13.936;2023-06-19T12:05:59;10.32;;;9.32;;
28309;SDS011;15571;50.974;13.936;2023-06-19T12:09:01;10.00;;;8.90;;
28309;SDS011;15571;50.974;13.936;2023-06-19T12:12:07;15.65;;;9.05;;
28309;SDS011;15571;50.974;13.936;2023-06-19T12:15:10;9.73;;;8.32;;
28309;SDS011;15571;50.974;13.936;2023-06-19T12:18:12;8.27;;;7.47;;
28309;SDS011;15571;50.974;13.936;2023-06-19T12:21:14;10.23;;;8.85;;
28309;SDS011;15571;50.974;13.936;2023-06-19T12:24:22;9.90;;;8.57;;
28309;SDS011;15571;50.974;13.936;2023-06-19T12:27:27;8.93;;;8.02;;
28309;SDS011;15571;50.974;13.936;2023-06-19T12:30:29;12.18;;;9.10;;
28309;SDS011;15571;50.974;13.936;2023-06-19T12:33:31;10.35;;;9.35;;
28309;SDS011;15571;50.974;13.936;2023-06-19T12:36:34;10.60;;;9.50;;
28309;SDS011;15571;50.974;13.936;2023-06-19T12:39:42;10.75;;;9.68;;
28309;SDS011;15571;50.974;13.936;2023-06-19T12:42:48;11.52;;;10.35;;
28309;SDS011;15571;50.974;13.936;2023-06-19T12:45:50;11.75;;;9.20;;
28309;SDS011;15571;50.974;13.936;2023-06-19T12:48:53;10.13;;;8.85;;
28309;SDS011;15571;50.974;13.936;2023-06-19T12:51:54;12.15;;;9.13;;
28309;SDS011;15571;50.974;13.936;2023-06-19T12:55:09;15.75;;;10.10;;
28309;SDS011;15571;50.974;13.936;2023-06-19T12:58:13;10.43;;;9.32;;
28309;SDS011;15571;50.974;13.936;2023-06-19T13:01:15;11.85;;;9.55;;
28309;SDS011;15571;50.974;13.936;2023-06-19T13:04:18;10.15;;;9.15;;
28309;SDS011;15571;50.974;13.936;2023-06-19T13:07:20;10.52;;;9.43;;
28309;SDS011;15571;50.974;13.936;2023-06-19T13:10:22;12.18;;;9.82;;
28309;SDS011;15571;50.974;13.936;2023-06-19T13:13:27;13.77;;;9.52;;
28309;SDS011;15571;50.974;13.936;2023-06-19T13:16:30;13.93;;;9.80;;
28309;SDS011;15571;50.974;13.936;2023-06-19T13:19:33;12.65;;;11.20;;
28309;SDS011;15571;50.974;13.936;2023-06-19T13:22:38;13.50;;;11.13;;
28309;SDS011;15571;50.974;13.936;2023-06-19T13:25:40;13.43;;;9.75;;
28309;SDS011;15571;50.974;13.936;2023-06-19T13:28:43;11.05;;;9.85;;
28309;SDS011;15571;50.974;13.936;2023-06-19T13:31:45;12.00;;;10.45;;
28309;SDS011;15571;50.974;13.936;2023-06-19T13:34:47;11.50;;;10.27;;
28309;SDS011;15571;50.974;13.936;2023-06-19T13:37:49;13.50;;;10.18;;
28309;SDS011;15571;50.974;13.936;2023-06-19T13:40:52;13.15;;;10.10;;
28309;SDS011;15571;50.974;13.936;2023-06-19T13:43:55;12.48;;;11.18;;
28309;SDS011;15571;50.974;13.936;2023-06-19T13:46:57;12.35;;;9.85;;
28309;SDS011;15571;50.974;13.936;2023-06-19T13:49:59;11.70;;;10.43;;
28309;SDS011;15571;50.974;13.936;2023-06-19T13:53:04;13.00;;;11.60;;
28309;SDS011;15571;50.974;13.936;2023-06-19T13:56:12;13.80;;;11.25;;
28309;SDS011;15571;50.974;13.936;2023-06-19T13:59:15;18.42;;;11.13;;
28309;SDS011;15571;50.974;13.936;2023-06-19T14:02:18;13.73;;;11.07;;
28309;SDS011;15571;50.974;13.936;2023-06-19T14:05:22;12.98;;;11.55;;
28309;SDS011;15571;50.974;13.936;2023-06-19T14:08:25;13.70;;;12.00;;
28309;SDS011;15571;50.974;13.936;2023-06-19T14:11:27;12.45;;;10.95;;
28309;SDS011;15571;50.974;13.936;2023-06-19T14:14:31;12.88;;;11.35;;
28309;SDS011;15571;50.974;13.936;2023-06-19T14:17:33;14.45;;;11.98;;
28309;SDS011;15571;50.974;13.936;2023-06-19T14:20:35;13.30;;;11.60;;
28309;SDS011;15571;50.974;13.936;2023-06-19T14:23:38;13.45;;;11.88;;
28309;SDS011;15571;50.974;13.936;2023-06-19T14:26:46;13.18;;;11.85;;
28309;SDS011;15571;50.974;13.936;2023-06-19T14:29:51;15.13;;;12.60;;
28309;SDS011;15571;50.974;13.936;2023-06-19T14:32:57;13.85;;;12.45;;
28309;SDS011;15571;50.974;13.936;2023-06-19T14:35:59;14.68;;;11.75;;
28309;SDS011;15571;50.974;13.936;2023-06-19T14:39:03;15.35;;;11.95;;
28309;SDS011;15571;50.974;13.936;2023-06-19T14:42:05;13.77;;;12.18;;
28309;SDS011;15571;50.974;13.936;2023-06-19T14:45:09;17.83;;;12.55;;
28309;SDS011;15571;50.974;13.936;2023-06-19T14:48:12;13.52;;;12.07;;
28309;SDS011;15571;50.974;13.936;2023-06-19T14:51:14;14.32;;;11.57;;
28309;SDS011;15571;50.974;13.936;2023-06-19T14:54:19;13.40;;;12.00;;
28309;SDS011;15571;50.974;13.936;2023-06-19T14:57:21;13.90;;;11.77;;
28309;SDS011;15571;50.974;13.936;2023-06-19T15:00:26;16.40;;;11.75;;
28309;SDS011;15571;50.974;13.936;2023-06-19T15:03:30;12.35;;;10.95;;
28309;SDS011;15571;50.974;13.936;2023-06-19T15:06:32;14.68;;;12.02;;
28309;SDS011;15571;50.974;13.936;2023-06-19T15:09:39;11.90;;;10.70;;
28309;SDS011;15571;50.974;13.936;2023-06-19T15:12:42;13.25;;;11.85;;
28309;SDS011;15571;50.974;13.936;2023-06-19T15:15:46;13.48;;;11.98;;
28309;SDS011;15571;50.974;13.936;2023-06-19T15:18:48;13.88;;;12.15;;
28309;SDS011;15571;50.974;13.936;2023-06-19T15:21:50;13.27;;;11.82;;
28309;SDS011;15571;50.974;13.936;2023-06-19T15:24:52;13.70;;;12.15;;
28309;SDS011;15571;50.974;13.936;2023-06-19T15:28:00;13.43;;;12.02;;
28309;SDS011;15571;50.974;13.936;2023-06-19T15:31:06;16.85;;;13.23;;
28309;SDS011;15571;50.974;13.936;2023-06-19T15:34:09;13.80;;;12.20;;
28309;SDS011;15571;50.974;13.936;2023-06-19T15:37:14;16.48;;;12.93;;
28309;SDS011;15571;50.974;13.936;2023-06-19T15:40:16;16.38;;;12.50;;
28309;SDS011;15571;50.974;13.936;2023-06-19T15:43:19;14.02;;;12.55;;
28309;SDS011;15571;50.974;13.936;2023-06-19T15:46:30;13.27;;;11.90;;
28309;SDS011;15571;50.974;13.936;2023-06-19T15:49:34;16.83;;;12.90;;
28309;SDS011;15571;50.974;13.936;2023-06-19T15:52:37;14.20;;;12.77;;
28309;SDS011;15571;50.974;13.936;2023-06-19T15:55:39;13.82;;;12.27;;
28309;SDS011;15571;50.974;13.936;2023-06-19T15:58:44;13.45;;;11.95;;
28309;SDS011;15571;50.974;13.936;2023-06-19T16:01:54;13.15;;;11.75;;
28309;SDS011;15571;50.974;13.936;2023-06-19T16:04:56;14.65;;;13.15;;
28309;SDS011;15571;50.974;13.936;2023-06-19T16:07:58;15.38;;;12.43;;
28309;SDS011;15571;50.974;13.936;2023-06-19T16:11:00;14.15;;;12.68;;
28309;SDS011;15571;50.974;13.936;2023-06-19T16:14:06;14.95;;;12.90;;
28309;SDS011;15571;50.974;13.936;2023-06-19T16:17:09;13.40;;;12.10;;
28309;SDS011;15571;50.974;13.936;2023-06-19T16:20:14;16.73;;;12.60;;
28309;SDS011;15571;50.974;13.936;2023-06-19T16:23:19;15.85;;;12.18;;
28309;SDS011;15571;50.974;13.936;2023-06-19T16:26:21;15.63;;;12.10;;
28309;SDS011;15571;50.974;13.936;2023-06-19T16:29:23;13.65;;;12.25;;
28309;SDS011;15571;50.974;13.936;2023-06-19T16:32:27;14.13;;;12.35;;
28309;SDS011;15571;50.974;13.936;2023-06-19T16:35:29;13.77;;;12.43;;
28309;SDS011;15571;50.974;13.936;2023-06-19T16:38:31;14.85;;;12.18;;
28309;SDS011;15571;50.974;13.936;2023-06-19T16:41:33;14.20;;;12.50;;
28309;SDS011;15571;50.974;13.936;2023-06-19T16:44:38;15.48;;;13.10;;
28309;SDS011;15571;50.974;13.936;2023-06-19T16:47:41;18.58;;;13.43;;
28309;SDS011;15571;50.974;13.936;2023-06-19T16:50:46;15.88;;;12.95;;
28309;SDS011;15571;50.974;13.936;2023-06-19T16:53:51;14.85;;;13.32;;
28309;SDS011;15571;50.974;13.936;2023-06-19T16:56:53;14.23;;;12.32;;
28309;SDS011;15571;50.974;13.936;2023-06-19T16:59:56;14.15;;;12.13;;
28309;SDS011;15571;50.974;13.936;2023-06-19T17:03:00;14.57;;;12.85;;
28309;SDS011;15571;50.974;13.936;2023-06-19T17:06:03;13.63;;;11.77;;
28309;SDS011;15571;50.974;13.936;2023-06-19T17:09:05;14.80;;;12.50;;
28309;SDS011;15571;50.974;13.936;2023-06-19T17:12:07;16.67;;;12.80;;
28309;SDS011;15571;50.974;13.936;2023-06-19T17:15:13;13.77;;;12.38;;
